Yokota Air Base
RJTY : now visible

Airfield :











YOU CAN JOIN US ON...

 
LOGIN :

Register | Disclaimer

   EN    FR    IT 

 









Legend :    VFR   Marginal VFR   IFR   Intensive IFR   Very Intensive IFR
Visi :
Ceiling :
>= 8 km
>= 3000ft
5 to 8 km
1000 to 3000 ft
1500m to 5 km
500 to 1000 ft
800 to 1500m
200 to 500 ft
< 800m
< 200 ft
Symbols :   Thunderstorms  Fog  Heavy snow  Heavy precipitations  Wind > 20 kt







- Airport Elevation : 463 ft
- IATA code : OKO


RJTY - Yokota Air Base

CURRENT METAR :
  • 161156Z AUTO 03007KT 10SM CLR 03/M06 A2987 RMK AO2 SLP125 T00331064 10121 20033 52023 FZRANO $

EXPIRED METARs :
  • 161056Z AUTO 03012KT 10SM CLR 05/M06 A2985 RMK AO2 SLP118 T00501063 FZRANO $
  • 160956Z AUTO 03014KT 10SM CLR 06/M06 A2982 RMK AO2 SLP109 T00591060 FZRANO $

TAF AMD TAF RJTY
Valid from the 16 at 06:00 until the 17 at 11:00 UTC


160627Z 1606/1711 01015KT 9999 SCT050 QNH2970INS
TEMPO 1607/1611 02015G25KT
BECMG 1613/1614 33007KT 9999 SCT040 QNH2974INS
TEMPO 1623/1704 33010G15KT TX13/1705Z TNM01/1619Z
RJJJ FIR / Asia



MET'MAP, your aeronautical weather chart ! - Copyright ORBIFLY December 2007 - Disclaimer

ORBIFLY MET'MAP TEAM :

Programming & Development : Alexandra Zaïnal
Concept & Development : Baudouin d'Aumeries
Co-Development & Prog : Marc-Olivier Méhu
Technical & hardware support : Manuel Goepfert

Contact : metmap@orbifly.com




SOURCES & CREDITS :

   NOAA       Earth
Advisory